sensor_id;sensor_type;location;lat;lon;timestamp;P1;durP1;ratioP1;P2;durP2;ratioP2
15082;SDS011;7640;53.116;6.878;2022-08-03T00:02:15;8.97;;;3.93;;
15082;SDS011;7640;53.116;6.878;2022-08-03T00:04:44;10.37;;;4.63;;
15082;SDS011;7640;53.116;6.878;2022-08-03T00:07:12;5.77;;;3.40;;
15082;SDS011;7640;53.116;6.878;2022-08-03T00:09:42;10.00;;;3.97;;
15082;SDS011;7640;53.116;6.878;2022-08-03T00:12:10;8.03;;;4.13;;
15082;SDS011;7640;53.116;6.878;2022-08-03T00:14:39;9.33;;;3.80;;
15082;SDS011;7640;53.116;6.878;2022-08-03T00:17:08;10.20;;;3.70;;
15082;SDS011;7640;53.116;6.878;2022-08-03T00:19:37;8.67;;;3.73;;
15082;SDS011;7640;53.116;6.878;2022-08-03T00:22:05;8.37;;;3.80;;
15082;SDS011;7640;53.116;6.878;2022-08-03T00:24:34;9.63;;;3.97;;
15082;SDS011;7640;53.116;6.878;2022-08-03T00:27:03;7.57;;;3.70;;
15082;SDS011;7640;53.116;6.878;2022-08-03T00:29:31;10.17;;;4.10;;
15082;SDS011;7640;53.116;6.878;2022-08-03T00:32:19;7.63;;;4.10;;
15082;SDS011;7640;53.116;6.878;2022-08-03T00:34:49;7.60;;;4.23;;
15082;SDS011;7640;53.116;6.878;2022-08-03T00:37:24;8.00;;;3.70;;
15082;SDS011;7640;53.116;6.878;2022-08-03T00:40:09;6.90;;;3.37;;
15082;SDS011;7640;53.116;6.878;2022-08-03T00:42:45;6.90;;;3.80;;
15082;SDS011;7640;53.116;6.878;2022-08-03T00:45:16;6.00;;;3.67;;
15082;SDS011;7640;53.116;6.878;2022-08-03T00:47:44;10.17;;;4.60;;
15082;SDS011;7640;53.116;6.878;2022-08-03T00:50:13;11.07;;;4.20;;
15082;SDS011;7640;53.116;6.878;2022-08-03T00:52:43;6.03;;;3.37;;
15082;SDS011;7640;53.116;6.878;2022-08-03T00:55:13;7.27;;;3.50;;
15082;SDS011;7640;53.116;6.878;2022-08-03T00:57:42;7.00;;;3.37;;
15082;SDS011;7640;53.116;6.878;2022-08-03T01:00:11;8.50;;;3.10;;
15082;SDS011;7640;53.116;6.878;2022-08-03T01:02:41;5.33;;;2.97;;
15082;SDS011;7640;53.116;6.878;2022-08-03T01:05:10;6.90;;;2.90;;
15082;SDS011;7640;53.116;6.878;2022-08-03T01:07:41;8.90;;;3.00;;
15082;SDS011;7640;53.116;6.878;2022-08-03T01:10:36;6.47;;;3.07;;
15082;SDS011;7640;53.116;6.878;2022-08-03T01:13:19;6.03;;;2.80;;
15082;SDS011;7640;53.116;6.878;2022-08-03T01:16:14;6.07;;;2.70;;
15082;SDS011;7640;53.116;6.878;2022-08-03T01:19:05;5.23;;;2.57;;
15082;SDS011;7640;53.116;6.878;2022-08-03T01:21:53;7.37;;;2.93;;
15082;SDS011;7640;53.116;6.878;2022-08-03T01:24:36;6.87;;;2.47;;
15082;SDS011;7640;53.116;6.878;2022-08-03T01:27:20;6.40;;;2.43;;
15082;SDS011;7640;53.116;6.878;2022-08-03T01:30:02;7.00;;;2.50;;
15082;SDS011;7640;53.116;6.878;2022-08-03T01:32:34;5.00;;;2.57;;
15082;SDS011;7640;53.116;6.878;2022-08-03T01:35:28;9.10;;;2.83;;
15082;SDS011;7640;53.116;6.878;2022-08-03T01:38:05;3.57;;;2.10;;
15082;SDS011;7640;53.116;6.878;2022-08-03T01:40:39;7.17;;;2.10;;
15082;SDS011;7640;53.116;6.878;2022-08-03T01:43:10;7.53;;;2.40;;
15082;SDS011;7640;53.116;6.878;2022-08-03T01:46:04;6.70;;;2.47;;
15082;SDS011;7640;53.116;6.878;2022-08-03T01:48:35;6.40;;;2.33;;
15082;SDS011;7640;53.116;6.878;2022-08-03T01:51:04;4.47;;;2.27;;
15082;SDS011;7640;53.116;6.878;2022-08-03T01:53:34;5.50;;;2.07;;
15082;SDS011;7640;53.116;6.878;2022-08-03T01:56:05;5.97;;;2.27;;
15082;SDS011;7640;53.116;6.878;2022-08-03T01:58:34;4.40;;;2.07;;
15082;SDS011;7640;53.116;6.878;2022-08-03T02:01:05;5.53;;;2.00;;
15082;SDS011;7640;53.116;6.878;2022-08-03T02:03:37;6.47;;;2.07;;
15082;SDS011;7640;53.116;6.878;2022-08-03T02:06:26;3.23;;;2.13;;
15082;SDS011;7640;53.116;6.878;2022-08-03T02:09:19;7.70;;;2.27;;
15082;SDS011;7640;53.116;6.878;2022-08-03T02:11:48;5.20;;;2.13;;
15082;SDS011;7640;53.116;6.878;2022-08-03T02:14:18;6.93;;;2.20;;
15082;SDS011;7640;53.116;6.878;2022-08-03T02:16:49;8.10;;;2.37;;
15082;SDS011;7640;53.116;6.878;2022-08-03T02:19:18;5.10;;;2.10;;
15082;SDS011;7640;53.116;6.878;2022-08-03T02:21:47;7.90;;;2.57;;
15082;SDS011;7640;53.116;6.878;2022-08-03T02:24:26;8.07;;;2.60;;
15082;SDS011;7640;53.116;6.878;2022-08-03T02:26:55;8.80;;;3.10;;
15082;SDS011;7640;53.116;6.878;2022-08-03T02:29:26;9.50;;;3.00;;
15082;SDS011;7640;53.116;6.878;2022-08-03T02:32:07;7.03;;;3.50;;
15082;SDS011;7640;53.116;6.878;2022-08-03T02:34:46;7.87;;;3.47;;
15082;SDS011;7640;53.116;6.878;2022-08-03T02:37:18;5.53;;;3.20;;
15082;SDS011;7640;53.116;6.878;2022-08-03T02:39:52;8.90;;;3.50;;
15082;SDS011;7640;53.116;6.878;2022-08-03T02:42:25;7.87;;;3.07;;
15082;SDS011;7640;53.116;6.878;2022-08-03T02:44:55;5.87;;;3.30;;
15082;SDS011;7640;53.116;6.878;2022-08-03T02:47:28;9.20;;;3.53;;
15082;SDS011;7640;53.116;6.878;2022-08-03T02:50:17;7.07;;;3.70;;
15082;SDS011;7640;53.116;6.878;2022-08-03T02:52:47;7.33;;;3.23;;
15082;SDS011;7640;53.116;6.878;2022-08-03T02:55:18;7.60;;;3.30;;
15082;SDS011;7640;53.116;6.878;2022-08-03T02:57:47;10.03;;;3.40;;
15082;SDS011;7640;53.116;6.878;2022-08-03T03:00:17;7.33;;;3.20;;
15082;SDS011;7640;53.116;6.878;2022-08-03T03:02:55;7.80;;;3.40;;
15082;SDS011;7640;53.116;6.878;2022-08-03T03:05:25;7.50;;;3.20;;
15082;SDS011;7640;53.116;6.878;2022-08-03T03:08:15;5.93;;;3.00;;
15082;SDS011;7640;53.116;6.878;2022-08-03T03:10:53;4.93;;;3.10;;
15082;SDS011;7640;53.116;6.878;2022-08-03T03:13:23;7.87;;;3.07;;
15082;SDS011;7640;53.116;6.878;2022-08-03T03:15:53;7.00;;;3.23;;
15082;SDS011;7640;53.116;6.878;2022-08-03T03:18:28;9.27;;;3.43;;
15082;SDS011;7640;53.116;6.878;2022-08-03T03:20:59;7.57;;;3.57;;
15082;SDS011;7640;53.116;6.878;2022-08-03T03:23:29;6.40;;;3.30;;
15082;SDS011;7640;53.116;6.878;2022-08-03T03:25:59;7.33;;;3.20;;
15082;SDS011;7640;53.116;6.878;2022-08-03T03:28:28;6.43;;;3.40;;
15082;SDS011;7640;53.116;6.878;2022-08-03T03:30:58;11.57;;;3.53;;
15082;SDS011;7640;53.116;6.878;2022-08-03T03:33:28;7.73;;;3.50;;
15082;SDS011;7640;53.116;6.878;2022-08-03T03:35:58;7.17;;;3.20;;
15082;SDS011;7640;53.116;6.878;2022-08-03T03:38:26;5.50;;;3.27;;
15082;SDS011;7640;53.116;6.878;2022-08-03T03:40:55;6.60;;;3.33;;
15082;SDS011;7640;53.116;6.878;2022-08-03T03:43:23;7.20;;;3.33;;
15082;SDS011;7640;53.116;6.878;2022-08-03T03:45:52;8.30;;;3.87;;
15082;SDS011;7640;53.116;6.878;2022-08-03T03:48:21;8.00;;;3.30;;
15082;SDS011;7640;53.116;6.878;2022-08-03T03:50:52;7.70;;;3.17;;
15082;SDS011;7640;53.116;6.878;2022-08-03T03:53:22;5.50;;;3.27;;
15082;SDS011;7640;53.116;6.878;2022-08-03T03:55:51;7.97;;;3.87;;
15082;SDS011;7640;53.116;6.878;2022-08-03T03:58:27;8.57;;;3.43;;
15082;SDS011;7640;53.116;6.878;2022-08-03T04:00:57;9.67;;;3.47;;
15082;SDS011;7640;53.116;6.878;2022-08-03T04:03:25;7.80;;;3.47;;
15082;SDS011;7640;53.116;6.878;2022-08-03T04:05:55;7.10;;;3.23;;
15082;SDS011;7640;53.116;6.878;2022-08-03T04:08:42;9.40;;;3.47;;
15082;SDS011;7640;53.116;6.878;2022-08-03T04:11:40;12.07;;;4.30;;
15082;SDS011;7640;53.116;6.878;2022-08-03T04:14:18;6.73;;;4.03;;
15082;SDS011;7640;53.116;6.878;2022-08-03T04:16:51;8.13;;;4.10;;
15082;SDS011;7640;53.116;6.878;2022-08-03T04:19:25;9.37;;;3.87;;
15082;SDS011;7640;53.116;6.878;2022-08-03T04:22:00;7.73;;;4.37;;
15082;SDS011;7640;53.116;6.878;2022-08-03T04:24:35;9.47;;;4.00;;
15082;SDS011;7640;53.116;6.878;2022-08-03T04:27:09;8.13;;;4.20;;
15082;SDS011;7640;53.116;6.878;2022-08-03T04:29:42;10.00;;;4.53;;
15082;SDS011;7640;53.116;6.878;2022-08-03T04:32:14;8.87;;;3.90;;
15082;SDS011;7640;53.116;6.878;2022-08-03T04:34:43;9.53;;;4.03;;
15082;SDS011;7640;53.116;6.878;2022-08-03T04:37:15;12.17;;;4.47;;
15082;SDS011;7640;53.116;6.878;2022-08-03T04:39:53;7.37;;;4.40;;
15082;SDS011;7640;53.116;6.878;2022-08-03T04:42:27;9.10;;;4.33;;
15082;SDS011;7640;53.116;6.878;2022-08-03T04:44:57;10.00;;;4.33;;
15082;SDS011;7640;53.116;6.878;2022-08-03T04:47:27;8.23;;;4.10;;
15082;SDS011;7640;53.116;6.878;2022-08-03T04:49:57;6.77;;;4.13;;
15082;SDS011;7640;53.116;6.878;2022-08-03T04:52:29;8.67;;;4.10;;
15082;SDS011;7640;53.116;6.878;2022-08-03T04:54:57;7.23;;;3.93;;
15082;SDS011;7640;53.116;6.878;2022-08-03T04:57:25;8.17;;;3.47;;
15082;SDS011;7640;53.116;6.878;2022-08-03T04:59:54;8.83;;;3.60;;
15082;SDS011;7640;53.116;6.878;2022-08-03T05:02:28;8.57;;;3.63;;
15082;SDS011;7640;53.116;6.878;2022-08-03T05:04:57;8.30;;;3.90;;
15082;SDS011;7640;53.116;6.878;2022-08-03T05:07:26;8.17;;;3.37;;
15082;SDS011;7640;53.116;6.878;2022-08-03T05:10:03;6.13;;;3.60;;
15082;SDS011;7640;53.116;6.878;2022-08-03T05:12:42;9.07;;;3.83;;
15082;SDS011;7640;53.116;6.878;2022-08-03T05:15:11;9.30;;;4.50;;
15082;SDS011;7640;53.116;6.878;2022-08-03T05:17:41;7.23;;;4.07;;
15082;SDS011;7640;53.116;6.878;2022-08-03T05:20:09;9.30;;;4.90;;
15082;SDS011;7640;53.116;6.878;2022-08-03T05:22:38;8.73;;;3.90;;
15082;SDS011;7640;53.116;6.878;2022-08-03T05:25:08;7.53;;;3.77;;
15082;SDS011;7640;53.116;6.878;2022-08-03T05:27:45;8.83;;;3.57;;
15082;SDS011;7640;53.116;6.878;2022-08-03T05:30:14;7.80;;;3.40;;
15082;SDS011;7640;53.116;6.878;2022-08-03T05:32:59;7.63;;;4.23;;
15082;SDS011;7640;53.116;6.878;2022-08-03T05:35:29;9.00;;;4.00;;
15082;SDS011;7640;53.116;6.878;2022-08-03T05:38:17;12.47;;;5.17;;
15082;SDS011;7640;53.116;6.878;2022-08-03T05:40:55;7.43;;;3.47;;
15082;SDS011;7640;53.116;6.878;2022-08-03T05:43:44;8.23;;;3.30;;
15082;SDS011;7640;53.116;6.878;2022-08-03T05:46:13;7.97;;;3.30;;
15082;SDS011;7640;53.116;6.878;2022-08-03T05:48:41;9.07;;;3.70;;
15082;SDS011;7640;53.116;6.878;2022-08-03T05:51:10;7.20;;;3.53;;
15082;SDS011;7640;53.116;6.878;2022-08-03T05:53:39;9.13;;;3.57;;
15082;SDS011;7640;53.116;6.878;2022-08-03T05:56:10;9.83;;;3.67;;
15082;SDS011;7640;53.116;6.878;2022-08-03T05:58:42;7.97;;;3.10;;
15082;SDS011;7640;53.116;6.878;2022-08-03T06:01:12;8.87;;;3.60;;
15082;SDS011;7640;53.116;6.878;2022-08-03T06:03:40;7.50;;;3.30;;
15082;SDS011;7640;53.116;6.878;2022-08-03T06:06:08;7.33;;;3.37;;
15082;SDS011;7640;53.116;6.878;2022-08-03T06:08:37;12.90;;;4.00;;
15082;SDS011;7640;53.116;6.878;2022-08-03T06:11:06;9.33;;;3.50;;
15082;SDS011;7640;53.116;6.878;2022-08-03T06:13:36;9.67;;;3.53;;
15082;SDS011;7640;53.116;6.878;2022-08-03T06:16:05;8.27;;;3.87;;
15082;SDS011;7640;53.116;6.878;2022-08-03T06:18:33;6.97;;;3.23;;
15082;SDS011;7640;53.116;6.878;2022-08-03T06:21:02;8.60;;;3.60;;
15082;SDS011;7640;53.116;6.878;2022-08-03T06:23:41;9.37;;;3.93;;
15082;SDS011;7640;53.116;6.878;2022-08-03T06:26:20;6.23;;;3.40;;
15082;SDS011;7640;53.116;6.878;2022-08-03T06:28:51;6.97;;;3.30;;
15082;SDS011;7640;53.116;6.878;2022-08-03T06:31:22;7.70;;;3.47;;
15082;SDS011;7640;53.116;6.878;2022-08-03T06:33:59;11.57;;;3.77;;
15082;SDS011;7640;53.116;6.878;2022-08-03T06:36:49;7.77;;;3.70;;
15082;SDS011;7640;53.116;6.878;2022-08-03T06:39:27;10.80;;;3.60;;
15082;SDS011;7640;53.116;6.878;2022-08-03T06:41:55;13.80;;;4.17;;
15082;SDS011;7640;53.116;6.878;2022-08-03T06:44:25;6.30;;;2.97;;
15082;SDS011;7640;53.116;6.878;2022-08-03T06:46:53;10.73;;;3.80;;
15082;SDS011;7640;53.116;6.878;2022-08-03T06:49:22;10.33;;;3.80;;
15082;SDS011;7640;53.116;6.878;2022-08-03T06:51:50;9.20;;;3.67;;
15082;SDS011;7640;53.116;6.878;2022-08-03T06:54:31;9.57;;;3.50;;
15082;SDS011;7640;53.116;6.878;2022-08-03T06:57:01;9.02;;;3.60;;
15082;SDS011;7640;53.116;6.878;2022-08-03T06:59:32;7.93;;;3.23;;
15082;SDS011;7640;53.116;6.878;2022-08-03T07:02:20;8.17;;;3.80;;
15082;SDS011;7640;53.116;6.878;2022-08-03T07:04:53;8.35;;;3.20;;
15082;SDS011;7640;53.116;6.878;2022-08-03T07:07:21;11.20;;;4.53;;
15082;SDS011;7640;53.116;6.878;2022-08-03T07:09:49;9.80;;;4.03;;
15082;SDS011;7640;53.116;6.878;2022-08-03T07:12:23;8.43;;;3.90;;
15082;SDS011;7640;53.116;6.878;2022-08-03T07:14:57;9.03;;;3.60;;
15082;SDS011;7640;53.116;6.878;2022-08-03T07:17:29;7.38;;;3.42;;
15082;SDS011;7640;53.116;6.878;2022-08-03T07:19:59;9.20;;;3.15;;
15082;SDS011;7640;53.116;6.878;2022-08-03T07:22:30;10.68;;;3.75;;
15082;SDS011;7640;53.116;6.878;2022-08-03T07:24:58;13.97;;;4.13;;
15082;SDS011;7640;53.116;6.878;2022-08-03T07:27:27;9.43;;;3.25;;
15082;SDS011;7640;53.116;6.878;2022-08-03T07:29:57;7.83;;;3.43;;
15082;SDS011;7640;53.116;6.878;2022-08-03T07:32:26;8.70;;;3.15;;
15082;SDS011;7640;53.116;6.878;2022-08-03T07:34:57;9.97;;;3.47;;
15082;SDS011;7640;53.116;6.878;2022-08-03T07:37:27;11.13;;;3.75;;
15082;SDS011;7640;53.116;6.878;2022-08-03T07:39:56;7.28;;;3.53;;
15082;SDS011;7640;53.116;6.878;2022-08-03T07:42:24;8.07;;;3.13;;
15082;SDS011;7640;53.116;6.878;2022-08-03T07:44:53;9.52;;;3.92;;
15082;SDS011;7640;53.116;6.878;2022-08-03T07:47:24;10.23;;;3.70;;
15082;SDS011;7640;53.116;6.878;2022-08-03T07:50:01;9.63;;;3.33;;
15082;SDS011;7640;53.116;6.878;2022-08-03T07:52:34;7.20;;;3.00;;
15082;SDS011;7640;53.116;6.878;2022-08-03T07:55:15;7.97;;;3.15;;
15082;SDS011;7640;53.116;6.878;2022-08-03T07:57:44;7.57;;;3.08;;
15082;SDS011;7640;53.116;6.878;2022-08-03T08:00:13;8.00;;;3.30;;
15082;SDS011;7640;53.116;6.878;2022-08-03T08:02:45;6.55;;;3.00;;
15082;SDS011;7640;53.116;6.878;2022-08-03T08:05:14;7.78;;;2.97;;
15082;SDS011;7640;53.116;6.878;2022-08-03T08:07:42;6.30;;;3.08;;
15082;SDS011;7640;53.116;6.878;2022-08-03T08:10:17;7.55;;;3.20;;
15082;SDS011;7640;53.116;6.878;2022-08-03T08:12:45;8.82;;;3.13;;
15082;SDS011;7640;53.116;6.878;2022-08-03T08:15:13;8.38;;;3.33;;
15082;SDS011;7640;53.116;6.878;2022-08-03T08:17:42;11.50;;;3.40;;
15082;SDS011;7640;53.116;6.878;2022-08-03T08:20:17;8.88;;;3.70;;
15082;SDS011;7640;53.116;6.878;2022-08-03T08:22:54;8.07;;;2.67;;
15082;SDS011;7640;53.116;6.878;2022-08-03T08:25:26;8.82;;;3.35;;
15082;SDS011;7640;53.116;6.878;2022-08-03T08:27:56;6.95;;;2.72;;
15082;SDS011;7640;53.116;6.878;2022-08-03T08:30:47;7.72;;;3.00;;
15082;SDS011;7640;53.116;6.878;2022-08-03T08:33:17;7.22;;;2.70;;
15082;SDS011;7640;53.116;6.878;2022-08-03T08:35:48;7.25;;;2.80;;
15082;SDS011;7640;53.116;6.878;2022-08-03T08:38:18;6.72;;;2.65;;
15082;SDS011;7640;53.116;6.878;2022-08-03T08:40:47;8.75;;;2.85;;
15082;SDS011;7640;53.116;6.878;2022-08-03T08:43:16;6.05;;;2.67;;
15082;SDS011;7640;53.116;6.878;2022-08-03T08:45:44;7.57;;;2.60;;
15082;SDS011;7640;53.116;6.878;2022-08-03T08:48:18;7.22;;;3.00;;
15082;SDS011;7640;53.116;6.878;2022-08-03T08:50:51;8.10;;;3.00;;
15082;SDS011;7640;53.116;6.878;2022-08-03T08:53:20;6.15;;;3.00;;
15082;SDS011;7640;53.116;6.878;2022-08-03T08:55:52;6.40;;;3.15;;
15082;SDS011;7640;53.116;6.878;2022-08-03T08:58:28;7.03;;;2.90;;
15082;SDS011;7640;53.116;6.878;2022-08-03T09:01:01;6.65;;;2.85;;
15082;SDS011;7640;53.116;6.878;2022-08-03T09:03:32;6.65;;;2.70;;
15082;SDS011;7640;53.116;6.878;2022-08-03T09:06:01;9.68;;;2.83;;
15082;SDS011;7640;53.116;6.878;2022-08-03T09:08:32;10.10;;;3.22;;
15082;SDS011;7640;53.116;6.878;2022-08-03T09:11:00;7.90;;;2.78;;
15082;SDS011;7640;53.116;6.878;2022-08-03T09:13:37;6.30;;;3.00;;
15082;SDS011;7640;53.116;6.878;2022-08-03T09:16:10;11.35;;;3.20;;
15082;SDS011;7640;53.116;6.878;2022-08-03T09:18:42;6.75;;;3.30;;
15082;SDS011;7640;53.116;6.878;2022-08-03T09:21:14;7.32;;;3.03;;
15082;SDS011;7640;53.116;6.878;2022-08-03T09:24:04;9.23;;;2.83;;
15082;SDS011;7640;53.116;6.878;2022-08-03T09:26:51;6.53;;;2.75;;
15082;SDS011;7640;53.116;6.878;2022-08-03T09:29:19;8.48;;;2.83;;
15082;SDS011;7640;53.116;6.878;2022-08-03T09:31:49;8.40;;;2.97;;
15082;SDS011;7640;53.116;6.878;2022-08-03T09:34:29;6.30;;;2.88;;
15082;SDS011;7640;53.116;6.878;2022-08-03T09:36:58;6.85;;;2.47;;
15082;SDS011;7640;53.116;6.878;2022-08-03T09:39:26;10.25;;;3.58;;
15082;SDS011;7640;53.116;6.878;2022-08-03T09:42:08;8.07;;;3.03;;
15082;SDS011;7640;53.116;6.878;2022-08-03T09:44:41;10.55;;;3.95;;
15082;SDS011;7640;53.116;6.878;2022-08-03T09:47:14;5.93;;;3.10;;
15082;SDS011;7640;53.116;6.878;2022-08-03T09:49:59;7.45;;;3.00;;
15082;SDS011;7640;53.116;6.878;2022-08-03T09:52:30;5.53;;;2.90;;
15082;SDS011;7640;53.116;6.878;2022-08-03T09:55:14;9.60;;;3.67;;
15082;SDS011;7640;53.116;6.878;2022-08-03T09:58:05;7.40;;;3.22;;
15082;SDS011;7640;53.116;6.878;2022-08-03T10:00:47;6.50;;;2.97;;
15082;SDS011;7640;53.116;6.878;2022-08-03T10:03:21;5.15;;;2.80;;
15082;SDS011;7640;53.116;6.878;2022-08-03T10:05:52;9.30;;;2.85;;
15082;SDS011;7640;53.116;6.878;2022-08-03T10:08:25;8.45;;;2.78;;
15082;SDS011;7640;53.116;6.878;2022-08-03T10:10:53;5.50;;;3.03;;
15082;SDS011;7640;53.116;6.878;2022-08-03T10:13:25;10.95;;;3.50;;
15082;SDS011;7640;53.116;6.878;2022-08-03T10:15:54;9.18;;;2.88;;
15082;SDS011;7640;53.116;6.878;2022-08-03T10:18:42;6.15;;;2.80;;
15082;SDS011;7640;53.116;6.878;2022-08-03T10:21:14;8.30;;;3.40;;
15082;SDS011;7640;53.116;6.878;2022-08-03T10:23:46;7.82;;;3.05;;
15082;SDS011;7640;53.116;6.878;2022-08-03T10:26:15;6.05;;;3.10;;
15082;SDS011;7640;53.116;6.878;2022-08-03T10:28:52;9.48;;;3.10;;
15082;SDS011;7640;53.116;6.878;2022-08-03T10:31:21;8.75;;;3.25;;
15082;SDS011;7640;53.116;6.878;2022-08-03T10:33:50;7.45;;;3.00;;
15082;SDS011;7640;53.116;6.878;2022-08-03T10:36:23;6.55;;;3.08;;
15082;SDS011;7640;53.116;6.878;2022-08-03T10:38:58;9.45;;;2.95;;
15082;SDS011;7640;53.116;6.878;2022-08-03T10:41:30;8.80;;;2.90;;
15082;SDS011;7640;53.116;6.878;2022-08-03T10:44:04;7.15;;;3.05;;
15082;SDS011;7640;53.116;6.878;2022-08-03T10:46:37;6.55;;;2.90;;
15082;SDS011;7640;53.116;6.878;2022-08-03T10:49:11;7.45;;;3.20;;
15082;SDS011;7640;53.116;6.878;2022-08-03T10:51:42;9.43;;;3.08;;
15082;SDS011;7640;53.116;6.878;2022-08-03T10:57:40;11.38;;;3.22;;
15082;SDS011;7640;53.116;6.878;2022-08-03T11:00:15;9.77;;;3.00;;
15082;SDS011;7640;53.116;6.878;2022-08-03T11:03:04;11.98;;;3.83;;
15082;SDS011;7640;53.116;6.878;2022-08-03T11:05:37;10.27;;;3.65;;
15082;SDS011;7640;53.116;6.878;2022-08-03T11:11:01;8.80;;;2.78;;
15082;SDS011;7640;53.116;6.878;2022-08-03T11:13:57;10.32;;;3.17;;
15082;SDS011;7640;53.116;6.878;2022-08-03T11:16:28;8.43;;;3.22;;
15082;SDS011;7640;53.116;6.878;2022-08-03T11:19:00;7.80;;;2.97;;
15082;SDS011;7640;53.116;6.878;2022-08-03T11:27:29;11.25;;;3.72;;
15082;SDS011;7640;53.116;6.878;2022-08-03T11:30:00;10.02;;;3.60;;
15082;SDS011;7640;53.116;6.878;2022-08-03T11:32:51;9.82;;;3.13;;
15082;SDS011;7640;53.116;6.878;2022-08-03T11:35:24;7.32;;;3.25;;
15082;SDS011;7640;53.116;6.878;2022-08-03T11:40:51;14.68;;;3.25;;
15082;SDS011;7640;53.116;6.878;2022-08-03T11:46:19;10.60;;;3.15;;
15082;SDS011;7640;53.116;6.878;2022-08-03T11:48:57;9.50;;;3.15;;
15082;SDS011;7640;53.116;6.878;2022-08-03T11:51:36;10.85;;;4.22;;
15082;SDS011;7640;53.116;6.878;2022-08-03T11:54:05;13.50;;;3.47;;
15082;SDS011;7640;53.116;6.878;2022-08-03T11:56:45;13.65;;;3.40;;
15082;SDS011;7640;53.116;6.878;2022-08-03T11:59:15;5.43;;;2.83;;
15082;SDS011;7640;53.116;6.878;2022-08-03T12:01:47;10.80;;;2.97;;
15082;SDS011;7640;53.116;6.878;2022-08-03T12:04:16;10.95;;;3.42;;
15082;SDS011;7640;53.116;6.878;2022-08-03T12:06:56;9.55;;;3.50;;
15082;SDS011;7640;53.116;6.878;2022-08-03T12:09:26;12.15;;;3.22;;
15082;SDS011;7640;53.116;6.878;2022-08-03T12:11:55;11.98;;;3.42;;
15082;SDS011;7640;53.116;6.878;2022-08-03T12:14:26;8.32;;;3.33;;
15082;SDS011;7640;53.116;6.878;2022-08-03T12:17:15;10.30;;;3.05;;
15082;SDS011;7640;53.116;6.878;2022-08-03T12:19:44;9.88;;;3.13;;
15082;SDS011;7640;53.116;6.878;2022-08-03T12:22:13;6.88;;;2.40;;
15082;SDS011;7640;53.116;6.878;2022-08-03T12:24:42;8.68;;;2.72;;
15082;SDS011;7640;53.116;6.878;2022-08-03T12:27:22;7.65;;;2.80;;
15082;SDS011;7640;53.116;6.878;2022-08-03T12:29:52;11.07;;;2.90;;
15082;SDS011;7640;53.116;6.878;2022-08-03T12:32:24;8.93;;;2.50;;
15082;SDS011;7640;53.116;6.878;2022-08-03T12:34:53;12.48;;;2.63;;
15082;SDS011;7640;53.116;6.878;2022-08-03T12:37:25;8.65;;;2.58;;
15082;SDS011;7640;53.116;6.878;2022-08-03T12:39:55;10.70;;;2.65;;
15082;SDS011;7640;53.116;6.878;2022-08-03T12:42:37;12.45;;;3.15;;
15082;SDS011;7640;53.116;6.878;2022-08-03T12:47:57;8.60;;;2.75;;
15082;SDS011;7640;53.116;6.878;2022-08-03T12:50:28;9.68;;;2.97;;
15082;SDS011;7640;53.116;6.878;2022-08-03T12:52:58;8.85;;;2.78;;
15082;SDS011;7640;53.116;6.878;2022-08-03T12:55:29;7.82;;;2.83;;
15082;SDS011;7640;53.116;6.878;2022-08-03T12:58:29;7.47;;;2.92;;
15082;SDS011;7640;53.116;6.878;2022-08-03T13:01:02;8.60;;;2.85;;
15082;SDS011;7640;53.116;6.878;2022-08-03T13:03:39;8.52;;;3.05;;
15082;SDS011;7640;53.116;6.878;2022-08-03T13:06:16;7.65;;;2.40;;
15082;SDS011;7640;53.116;6.878;2022-08-03T13:08:45;10.35;;;2.42;;
15082;SDS011;7640;53.116;6.878;2022-08-03T13:11:18;9.73;;;2.67;;
15082;SDS011;7640;53.116;6.878;2022-08-03T13:14:11;5.57;;;1.95;;
15082;SDS011;7640;53.116;6.878;2022-08-03T13:16:45;7.20;;;2.20;;
15082;SDS011;7640;53.116;6.878;2022-08-03T13:19:14;7.68;;;1.90;;
15082;SDS011;7640;53.116;6.878;2022-08-03T13:21:42;4.00;;;1.73;;
15082;SDS011;7640;53.116;6.878;2022-08-03T13:24:32;6.88;;;1.90;;
15082;SDS011;7640;53.116;6.878;2022-08-03T13:27:01;7.05;;;1.80;;
15082;SDS011;7640;53.116;6.878;2022-08-03T13:29:53;4.82;;;1.90;;
15082;SDS011;7640;53.116;6.878;2022-08-03T13:32:22;5.63;;;1.90;;
15082;SDS011;7640;53.116;6.878;2022-08-03T13:34:50;5.75;;;1.98;;
15082;SDS011;7640;53.116;6.878;2022-08-03T13:37:18;5.97;;;2.00;;
15082;SDS011;7640;53.116;6.878;2022-08-03T13:39:47;5.13;;;1.60;;
15082;SDS011;7640;53.116;6.878;2022-08-03T13:42:26;4.70;;;1.70;;
15082;SDS011;7640;53.116;6.878;2022-08-03T13:44:57;7.40;;;1.63;;
15082;SDS011;7640;53.116;6.878;2022-08-03T13:47:26;6.88;;;1.85;;
15082;SDS011;7640;53.116;6.878;2022-08-03T13:49:55;5.22;;;2.15;;
15082;SDS011;7640;53.116;6.878;2022-08-03T13:52:28;6.72;;;2.00;;
15082;SDS011;7640;53.116;6.878;2022-08-03T13:54:58;4.90;;;1.67;;
15082;SDS011;7640;53.116;6.878;2022-08-03T13:57:26;5.10;;;1.77;;
15082;SDS011;7640;53.116;6.878;2022-08-03T14:00:17;7.97;;;1.90;;
15082;SDS011;7640;53.116;6.878;2022-08-03T14:02:57;4.57;;;1.70;;
15082;SDS011;7640;53.116;6.878;2022-08-03T14:05:38;4.35;;;1.90;;
15082;SDS011;7640;53.116;6.878;2022-08-03T14:08:07;6.30;;;1.63;;
15082;SDS011;7640;53.116;6.878;2022-08-03T14:10:36;8.45;;;1.90;;
15082;SDS011;7640;53.116;6.878;2022-08-03T14:13:07;5.85;;;2.30;;
15082;SDS011;7640;53.116;6.878;2022-08-03T14:15:39;6.75;;;2.30;;
15082;SDS011;7640;53.116;6.878;2022-08-03T14:18:15;6.28;;;1.85;;
15082;SDS011;7640;53.116;6.878;2022-08-03T14:20:55;6.82;;;1.90;;
15082;SDS011;7640;53.116;6.878;2022-08-03T14:23:30;8.73;;;2.20;;
15082;SDS011;7640;53.116;6.878;2022-08-03T14:25:59;5.28;;;1.90;;
15082;SDS011;7640;53.116;6.878;2022-08-03T14:28:27;6.43;;;2.13;;
15082;SDS011;7640;53.116;6.878;2022-08-03T14:30:56;4.00;;;2.05;;
15082;SDS011;7640;53.116;6.878;2022-08-03T14:33:25;6.40;;;2.17;;
15082;SDS011;7640;53.116;6.878;2022-08-03T14:35:55;5.15;;;2.30;;
15082;SDS011;7640;53.116;6.878;2022-08-03T14:38:25;6.63;;;2.30;;
15082;SDS011;7640;53.116;6.878;2022-08-03T14:40:54;5.25;;;2.33;;
15082;SDS011;7640;53.116;6.878;2022-08-03T14:43:23;9.13;;;2.55;;
15082;SDS011;7640;53.116;6.878;2022-08-03T14:46:00;7.50;;;2.08;;
15082;SDS011;7640;53.116;6.878;2022-08-03T14:48:29;7.07;;;2.40;;
15082;SDS011;7640;53.116;6.878;2022-08-03T14:51:17;6.78;;;2.15;;
15082;SDS011;7640;53.116;6.878;2022-08-03T14:53:45;6.03;;;2.33;;
15082;SDS011;7640;53.116;6.878;2022-08-03T14:56:14;7.32;;;2.40;;
15082;SDS011;7640;53.116;6.878;2022-08-03T14:58:46;7.22;;;2.08;;
15082;SDS011;7640;53.116;6.878;2022-08-03T15:01:34;7.03;;;2.25;;
15082;SDS011;7640;53.116;6.878;2022-08-03T15:04:25;6.97;;;2.60;;
15082;SDS011;7640;53.116;6.878;2022-08-03T15:07:24;9.45;;;2.50;;
15082;SDS011;7640;53.116;6.878;2022-08-03T15:10:57;6.38;;;1.83;;
15082;SDS011;7640;53.116;6.878;2022-08-03T15:13:25;6.50;;;2.28;;
15082;SDS011;7640;53.116;6.878;2022-08-03T15:15:53;5.13;;;2.22;;
15082;SDS011;7640;53.116;6.878;2022-08-03T15:18:24;6.75;;;2.58;;
15082;SDS011;7640;53.116;6.878;2022-08-03T15:20:52;8.05;;;3.00;;
15082;SDS011;7640;53.116;6.878;2022-08-03T15:23:20;8.57;;;2.50;;
15082;SDS011;7640;53.116;6.878;2022-08-03T15:25:48;7.03;;;2.10;;
15082;SDS011;7640;53.116;6.878;2022-08-03T15:28:37;5.95;;;2.00;;
15082;SDS011;7640;53.116;6.878;2022-08-03T15:31:05;6.35;;;2.10;;
15082;SDS011;7640;53.116;6.878;2022-08-03T15:36:30;5.28;;;2.20;;
15082;SDS011;7640;53.116;6.878;2022-08-03T15:38:59;7.43;;;2.55;;
15082;SDS011;7640;53.116;6.878;2022-08-03T15:41:30;5.97;;;2.10;;
15082;SDS011;7640;53.116;6.878;2022-08-03T15:44:21;4.68;;;2.30;;
15082;SDS011;7640;53.116;6.878;2022-08-03T15:46:52;4.22;;;2.08;;
15082;SDS011;7640;53.116;6.878;2022-08-03T15:49:22;7.88;;;2.15;;
15082;SDS011;7640;53.116;6.878;2022-08-03T15:51:50;6.22;;;2.20;;
15082;SDS011;7640;53.116;6.878;2022-08-03T15:54:18;5.10;;;2.10;;
15082;SDS011;7640;53.116;6.878;2022-08-03T15:56:46;5.82;;;2.28;;
15082;SDS011;7640;53.116;6.878;2022-08-03T15:59:15;4.57;;;2.20;;
15082;SDS011;7640;53.116;6.878;2022-08-03T16:01:44;7.25;;;2.20;;
15082;SDS011;7640;53.116;6.878;2022-08-03T16:04:14;5.05;;;2.45;;